sensor_id;sensor_type;location;lat;lon;timestamp;P1;durP1;ratioP1;P2;durP2;ratioP2
31262;SDS011;17892;52.080;9.006;2022-12-29T00:01:34;1.85;;;0.80;;
31262;SDS011;17892;52.080;9.006;2022-12-29T00:04:01;1.67;;;0.65;;
31262;SDS011;17892;52.080;9.006;2022-12-29T00:06:27;1.30;;;0.70;;
31262;SDS011;17892;52.080;9.006;2022-12-29T00:08:53;1.35;;;0.75;;
31262;SDS011;17892;52.080;9.006;2022-12-29T00:11:22;1.10;;;0.60;;
31262;SDS011;17892;52.080;9.006;2022-12-29T00:13:51;1.63;;;0.50;;
31262;SDS011;17892;52.080;9.006;2022-12-29T00:16:37;1.80;;;0.80;;
31262;SDS011;17892;52.080;9.006;2022-12-29T00:19:10;1.48;;;0.70;;
31262;SDS011;17892;52.080;9.006;2022-12-29T00:21:56;1.08;;;0.57;;
31262;SDS011;17892;52.080;9.006;2022-12-29T00:24:41;1.38;;;0.55;;
31262;SDS011;17892;52.080;9.006;2022-12-29T00:27:28;1.50;;;0.60;;
31262;SDS011;17892;52.080;9.006;2022-12-29T00:30:14;1.73;;;0.65;;
31262;SDS011;17892;52.080;9.006;2022-12-29T00:33:08;1.33;;;0.63;;
31262;SDS011;17892;52.080;9.006;2022-12-29T00:36:22;1.98;;;0.73;;
31262;SDS011;17892;52.080;9.006;2022-12-29T00:38:51;1.70;;;0.80;;
31262;SDS011;17892;52.080;9.006;2022-12-29T00:41:39;1.38;;;0.52;;
31262;SDS011;17892;52.080;9.006;2022-12-29T00:44:24;1.50;;;0.50;;
31262;SDS011;17892;52.080;9.006;2022-12-29T00:46:49;1.70;;;0.63;;
31262;SDS011;17892;52.080;9.006;2022-12-29T00:49:15;1.23;;;0.55;;
31262;SDS011;17892;52.080;9.006;2022-12-29T00:51:57;1.60;;;0.60;;
31262;SDS011;17892;52.080;9.006;2022-12-29T00:54:24;1.10;;;0.52;;
31262;SDS011;17892;52.080;9.006;2022-12-29T00:56:50;1.35;;;0.60;;
31262;SDS011;17892;52.080;9.006;2022-12-29T00:59:17;2.72;;;0.68;;
31262;SDS011;17892;52.080;9.006;2022-12-29T01:01:44;1.33;;;0.50;;
31262;SDS011;17892;52.080;9.006;2022-12-29T01:04:10;1.85;;;0.50;;
31262;SDS011;17892;52.080;9.006;2022-12-29T01:06:37;1.27;;;0.50;;
31262;SDS011;17892;52.080;9.006;2022-12-29T01:09:05;1.25;;;0.50;;
31262;SDS011;17892;52.080;9.006;2022-12-29T01:11:50;0.90;;;0.50;;
31262;SDS011;17892;52.080;9.006;2022-12-29T01:14:17;2.13;;;0.60;;
31262;SDS011;17892;52.080;9.006;2022-12-29T01:16:44;1.20;;;0.40;;
31262;SDS011;17892;52.080;9.006;2022-12-29T01:19:11;1.10;;;0.50;;
31262;SDS011;17892;52.080;9.006;2022-12-29T01:21:38;1.63;;;0.75;;
31262;SDS011;17892;52.080;9.006;2022-12-29T01:24:03;0.85;;;0.40;;
31262;SDS011;17892;52.080;9.006;2022-12-29T01:26:29;1.08;;;0.40;;
31262;SDS011;17892;52.080;9.006;2022-12-29T01:28:56;1.17;;;0.45;;
31262;SDS011;17892;52.080;9.006;2022-12-29T01:31:21;0.70;;;0.30;;
31262;SDS011;17892;52.080;9.006;2022-12-29T01:33:47;1.40;;;0.60;;
31262;SDS011;17892;52.080;9.006;2022-12-29T01:36:14;1.13;;;0.50;;
31262;SDS011;17892;52.080;9.006;2022-12-29T01:38:41;1.08;;;0.50;;
31262;SDS011;17892;52.080;9.006;2022-12-29T01:41:07;0.82;;;0.40;;
31262;SDS011;17892;52.080;9.006;2022-12-29T01:48:57;1.90;;;0.40;;
31262;SDS011;17892;52.080;9.006;2022-12-29T01:51:33;0.70;;;0.30;;
31262;SDS011;17892;52.080;9.006;2022-12-29T01:54:11;0.90;;;0.40;;
31262;SDS011;17892;52.080;9.006;2022-12-29T01:56:43;1.77;;;0.50;;
31262;SDS011;17892;52.080;9.006;2022-12-29T01:59:15;1.02;;;0.50;;
31262;SDS011;17892;52.080;9.006;2022-12-29T02:01:45;0.90;;;0.35;;
31262;SDS011;17892;52.080;9.006;2022-12-29T02:04:12;0.70;;;0.30;;
31262;SDS011;17892;52.080;9.006;2022-12-29T02:06:41;1.13;;;0.40;;
31262;SDS011;17892;52.080;9.006;2022-12-29T02:09:17;1.33;;;0.40;;
31262;SDS011;17892;52.080;9.006;2022-12-29T02:11:43;1.33;;;0.50;;
31262;SDS011;17892;52.080;9.006;2022-12-29T02:14:10;1.15;;;0.50;;
31262;SDS011;17892;52.080;9.006;2022-12-29T02:16:57;1.73;;;0.52;;
31262;SDS011;17892;52.080;9.006;2022-12-29T02:20:11;2.00;;;0.60;;
31262;SDS011;17892;52.080;9.006;2022-12-29T02:29:17;2.13;;;0.82;;
31262;SDS011;17892;52.080;9.006;2022-12-29T02:34:29;1.50;;;0.63;;
31262;SDS011;17892;52.080;9.006;2022-12-29T02:40:37;1.00;;;0.40;;
31262;SDS011;17892;52.080;9.006;2022-12-29T02:43:31;1.83;;;0.30;;
31262;SDS011;17892;52.080;9.006;2022-12-29T02:52:01;0.65;;;0.30;;
31262;SDS011;17892;52.080;9.006;2022-12-29T02:54:39;1.02;;;0.40;;
31262;SDS011;17892;52.080;9.006;2022-12-29T02:57:10;1.33;;;0.40;;
31262;SDS011;17892;52.080;9.006;2022-12-29T02:59:38;0.47;;;0.30;;
31262;SDS011;17892;52.080;9.006;2022-12-29T03:02:14;1.27;;;0.45;;
31262;SDS011;17892;52.080;9.006;2022-12-29T03:05:25;1.35;;;0.52;;
31262;SDS011;17892;52.080;9.006;2022-12-29T03:08:31;0.57;;;0.28;;
31262;SDS011;17892;52.080;9.006;2022-12-29T03:11:14;0.63;;;0.30;;
31262;SDS011;17892;52.080;9.006;2022-12-29T03:14:07;0.30;;;0.20;;
31262;SDS011;17892;52.080;9.006;2022-12-29T03:17:15;0.88;;;0.30;;
31262;SDS011;17892;52.080;9.006;2022-12-29T03:19:50;1.05;;;0.30;;
31262;SDS011;17892;52.080;9.006;2022-12-29T03:22:25;0.60;;;0.20;;
31262;SDS011;17892;52.080;9.006;2022-12-29T03:24:59;0.70;;;0.20;;
31262;SDS011;17892;52.080;9.006;2022-12-29T03:27:36;0.60;;;0.30;;
31262;SDS011;17892;52.080;9.006;2022-12-29T03:30:12;0.82;;;0.20;;
31262;SDS011;17892;52.080;9.006;2022-12-29T03:32:41;0.90;;;0.22;;
31262;SDS011;17892;52.080;9.006;2022-12-29T03:35:11;0.30;;;0.20;;
31262;SDS011;17892;52.080;9.006;2022-12-29T03:37:41;0.60;;;0.20;;
31262;SDS011;17892;52.080;9.006;2022-12-29T03:40:15;0.68;;;0.20;;
31262;SDS011;17892;52.080;9.006;2022-12-29T03:42:41;2.08;;;0.30;;
31262;SDS011;17892;52.080;9.006;2022-12-29T03:45:08;0.60;;;0.20;;
31262;SDS011;17892;52.080;9.006;2022-12-29T03:47:36;0.30;;;0.20;;
31262;SDS011;17892;52.080;9.006;2022-12-29T03:50:01;0.45;;;0.20;;
31262;SDS011;17892;52.080;9.006;2022-12-29T03:52:27;0.40;;;0.20;;
31262;SDS011;17892;52.080;9.006;2022-12-29T03:54:53;0.68;;;0.22;;
31262;SDS011;17892;52.080;9.006;2022-12-29T03:57:18;0.77;;;0.30;;
31262;SDS011;17892;52.080;9.006;2022-12-29T03:59:44;0.70;;;0.20;;
31262;SDS011;17892;52.080;9.006;2022-12-29T04:02:10;0.60;;;0.28;;
31262;SDS011;17892;52.080;9.006;2022-12-29T04:04:36;0.20;;;0.10;;
31262;SDS011;17892;52.080;9.006;2022-12-29T04:07:01;1.65;;;0.30;;
31262;SDS011;17892;52.080;9.006;2022-12-29T04:09:27;0.40;;;0.20;;
31262;SDS011;17892;52.080;9.006;2022-12-29T04:11:53;0.70;;;0.28;;
31262;SDS011;17892;52.080;9.006;2022-12-29T04:14:18;0.77;;;0.22;;
31262;SDS011;17892;52.080;9.006;2022-12-29T04:16:44;0.65;;;0.28;;
31262;SDS011;17892;52.080;9.006;2022-12-29T04:19:10;0.55;;;0.20;;
31262;SDS011;17892;52.080;9.006;2022-12-29T04:21:35;1.30;;;0.30;;
31262;SDS011;17892;52.080;9.006;2022-12-29T04:24:01;0.50;;;0.20;;
31262;SDS011;17892;52.080;9.006;2022-12-29T04:26:27;1.75;;;0.38;;
31262;SDS011;17892;52.080;9.006;2022-12-29T04:28:53;0.73;;;0.30;;
31262;SDS011;17892;52.080;9.006;2022-12-29T04:31:19;0.90;;;0.30;;
31262;SDS011;17892;52.080;9.006;2022-12-29T04:33:44;1.02;;;0.30;;
31262;SDS011;17892;52.080;9.006;2022-12-29T04:36:10;0.32;;;0.20;;
31262;SDS011;17892;52.080;9.006;2022-12-29T04:38:36;1.33;;;0.22;;
31262;SDS011;17892;52.080;9.006;2022-12-29T04:41:01;0.45;;;0.30;;
31262;SDS011;17892;52.080;9.006;2022-12-29T04:43:27;0.55;;;0.30;;
31262;SDS011;17892;52.080;9.006;2022-12-29T04:45:53;0.95;;;0.30;;
31262;SDS011;17892;52.080;9.006;2022-12-29T04:48:19;0.60;;;0.30;;
31262;SDS011;17892;52.080;9.006;2022-12-29T04:50:47;0.60;;;0.28;;
31262;SDS011;17892;52.080;9.006;2022-12-29T04:53:14;3.28;;;0.80;;
31262;SDS011;17892;52.080;9.006;2022-12-29T04:55:41;1.65;;;0.30;;
31262;SDS011;17892;52.080;9.006;2022-12-29T04:58:07;1.98;;;0.43;;
31262;SDS011;17892;52.080;9.006;2022-12-29T05:00:32;0.85;;;0.28;;
31262;SDS011;17892;52.080;9.006;2022-12-29T05:02:58;0.95;;;0.30;;
31262;SDS011;17892;52.080;9.006;2022-12-29T05:05:24;0.77;;;0.40;;
31262;SDS011;17892;52.080;9.006;2022-12-29T05:07:50;0.75;;;0.38;;
31262;SDS011;17892;52.080;9.006;2022-12-29T05:10:16;0.43;;;0.20;;
31262;SDS011;17892;52.080;9.006;2022-12-29T05:12:42;1.00;;;0.30;;
31262;SDS011;17892;52.080;9.006;2022-12-29T05:15:08;2.42;;;0.20;;
31262;SDS011;17892;52.080;9.006;2022-12-29T05:17:36;0.65;;;0.22;;
31262;SDS011;17892;52.080;9.006;2022-12-29T05:20:02;1.25;;;0.20;;
31262;SDS011;17892;52.080;9.006;2022-12-29T05:22:29;0.80;;;0.22;;
31262;SDS011;17892;52.080;9.006;2022-12-29T05:24:55;0.70;;;0.30;;
31262;SDS011;17892;52.080;9.006;2022-12-29T05:27:21;0.50;;;0.20;;
31262;SDS011;17892;52.080;9.006;2022-12-29T05:29:46;0.30;;;0.20;;
31262;SDS011;17892;52.080;9.006;2022-12-29T05:32:12;1.20;;;0.38;;
31262;SDS011;17892;52.080;9.006;2022-12-29T05:34:38;0.82;;;0.25;;
31262;SDS011;17892;52.080;9.006;2022-12-29T05:37:03;0.47;;;0.13;;
31262;SDS011;17892;52.080;9.006;2022-12-29T05:39:29;1.75;;;0.20;;
31262;SDS011;17892;52.080;9.006;2022-12-29T05:41:55;0.60;;;0.28;;
31262;SDS011;17892;52.080;9.006;2022-12-29T05:44:20;0.80;;;0.20;;
31262;SDS011;17892;52.080;9.006;2022-12-29T05:46:46;0.63;;;0.20;;
31262;SDS011;17892;52.080;9.006;2022-12-29T05:49:12;0.20;;;0.10;;
31262;SDS011;17892;52.080;9.006;2022-12-29T05:51:37;0.47;;;0.20;;
31262;SDS011;17892;52.080;9.006;2022-12-29T05:54:03;0.55;;;0.20;;
31262;SDS011;17892;52.080;9.006;2022-12-29T05:56:29;0.55;;;0.20;;
31262;SDS011;17892;52.080;9.006;2022-12-29T05:58:54;0.47;;;0.20;;
31262;SDS011;17892;52.080;9.006;2022-12-29T06:01:20;0.57;;;0.25;;
31262;SDS011;17892;52.080;9.006;2022-12-29T06:03:46;0.63;;;0.30;;
31262;SDS011;17892;52.080;9.006;2022-12-29T06:06:12;0.47;;;0.20;;
31262;SDS011;17892;52.080;9.006;2022-12-29T06:08:37;0.60;;;0.20;;
31262;SDS011;17892;52.080;9.006;2022-12-29T06:11:03;0.85;;;0.20;;
31262;SDS011;17892;52.080;9.006;2022-12-29T06:13:29;0.40;;;0.15;;
31262;SDS011;17892;52.080;9.006;2022-12-29T06:15:54;2.35;;;0.50;;
31262;SDS011;17892;52.080;9.006;2022-12-29T06:18:20;0.77;;;0.30;;
31262;SDS011;17892;52.080;9.006;2022-12-29T06:20:46;0.70;;;0.20;;
31262;SDS011;17892;52.080;9.006;2022-12-29T06:23:12;0.50;;;0.20;;
31262;SDS011;17892;52.080;9.006;2022-12-29T06:25:38;0.35;;;0.20;;
31262;SDS011;17892;52.080;9.006;2022-12-29T06:28:04;1.13;;;0.20;;
31262;SDS011;17892;52.080;9.006;2022-12-29T06:30:30;2.13;;;0.40;;
31262;SDS011;17892;52.080;9.006;2022-12-29T06:32:57;1.00;;;0.25;;
31262;SDS011;17892;52.080;9.006;2022-12-29T06:35:23;0.38;;;0.20;;
31262;SDS011;17892;52.080;9.006;2022-12-29T06:37:49;0.73;;;0.20;;
31262;SDS011;17892;52.080;9.006;2022-12-29T06:40:15;0.85;;;0.35;;
31262;SDS011;17892;52.080;9.006;2022-12-29T06:42:41;0.30;;;0.20;;
31262;SDS011;17892;52.080;9.006;2022-12-29T06:45:07;0.43;;;0.22;;
31262;SDS011;17892;52.080;9.006;2022-12-29T06:47:34;0.95;;;0.30;;
31262;SDS011;17892;52.080;9.006;2022-12-29T06:50:00;1.55;;;0.45;;
31262;SDS011;17892;52.080;9.006;2022-12-29T06:52:26;0.30;;;0.10;;
31262;SDS011;17892;52.080;9.006;2022-12-29T06:54:53;0.82;;;0.30;;
31262;SDS011;17892;52.080;9.006;2022-12-29T06:57:20;1.42;;;0.35;;
31262;SDS011;17892;52.080;9.006;2022-12-29T06:59:46;0.80;;;0.40;;
31262;SDS011;17892;52.080;9.006;2022-12-29T07:02:12;0.75;;;0.35;;
31262;SDS011;17892;52.080;9.006;2022-12-29T07:04:43;1.25;;;0.30;;
31262;SDS011;17892;52.080;9.006;2022-12-29T07:07:08;0.50;;;0.30;;
31262;SDS011;17892;52.080;9.006;2022-12-29T07:09:34;1.25;;;0.30;;
31262;SDS011;17892;52.080;9.006;2022-12-29T07:12:00;0.73;;;0.30;;
31262;SDS011;17892;52.080;9.006;2022-12-29T07:14:26;1.40;;;0.40;;
31262;SDS011;17892;52.080;9.006;2022-12-29T07:16:51;0.63;;;0.20;;
31262;SDS011;17892;52.080;9.006;2022-12-29T07:19:17;0.60;;;0.30;;
31262;SDS011;17892;52.080;9.006;2022-12-29T07:21:43;1.63;;;0.40;;
31262;SDS011;17892;52.080;9.006;2022-12-29T07:24:09;0.73;;;0.30;;
31262;SDS011;17892;52.080;9.006;2022-12-29T07:26:35;1.63;;;0.50;;
31262;SDS011;17892;52.080;9.006;2022-12-29T07:29:01;0.70;;;0.40;;
31262;SDS011;17892;52.080;9.006;2022-12-29T07:31:28;1.33;;;0.40;;
31262;SDS011;17892;52.080;9.006;2022-12-29T07:33:54;1.08;;;0.30;;
31262;SDS011;17892;52.080;9.006;2022-12-29T07:36:19;0.75;;;0.35;;
31262;SDS011;17892;52.080;9.006;2022-12-29T07:38:45;0.93;;;0.40;;
31262;SDS011;17892;52.080;9.006;2022-12-29T07:41:11;1.17;;;0.47;;
31262;SDS011;17892;52.080;9.006;2022-12-29T07:43:37;1.40;;;0.50;;
31262;SDS011;17892;52.080;9.006;2022-12-29T07:46:03;1.40;;;0.75;;
31262;SDS011;17892;52.080;9.006;2022-12-29T07:48:29;1.45;;;0.47;;
31262;SDS011;17892;52.080;9.006;2022-12-29T07:50:54;1.75;;;0.50;;
31262;SDS011;17892;52.080;9.006;2022-12-29T07:53:20;1.92;;;0.50;;
31262;SDS011;17892;52.080;9.006;2022-12-29T07:55:46;1.10;;;0.40;;
31262;SDS011;17892;52.080;9.006;2022-12-29T07:58:11;1.13;;;0.40;;
31262;SDS011;17892;52.080;9.006;2022-12-29T08:00:37;1.52;;;0.30;;
31262;SDS011;17892;52.080;9.006;2022-12-29T08:03:04;1.75;;;0.40;;
31262;SDS011;17892;52.080;9.006;2022-12-29T08:05:31;1.75;;;0.60;;
31262;SDS011;17892;52.080;9.006;2022-12-29T08:07:57;1.13;;;0.60;;
31262;SDS011;17892;52.080;9.006;2022-12-29T08:10:23;2.05;;;0.45;;
31262;SDS011;17892;52.080;9.006;2022-12-29T08:12:49;1.45;;;0.60;;
31262;SDS011;17892;52.080;9.006;2022-12-29T08:15:15;1.88;;;0.60;;
31262;SDS011;17892;52.080;9.006;2022-12-29T08:17:41;1.88;;;0.60;;
31262;SDS011;17892;52.080;9.006;2022-12-29T08:20:07;1.08;;;0.60;;
31262;SDS011;17892;52.080;9.006;2022-12-29T08:22:33;1.92;;;0.60;;
31262;SDS011;17892;52.080;9.006;2022-12-29T08:24:59;1.38;;;0.50;;
31262;SDS011;17892;52.080;9.006;2022-12-29T08:27:25;0.82;;;0.40;;
31262;SDS011;17892;52.080;9.006;2022-12-29T08:29:51;1.77;;;0.55;;
31262;SDS011;17892;52.080;9.006;2022-12-29T08:32:17;2.03;;;0.95;;
31262;SDS011;17892;52.080;9.006;2022-12-29T08:34:43;1.48;;;0.60;;
31262;SDS011;17892;52.080;9.006;2022-12-29T08:37:09;1.30;;;0.57;;
31262;SDS011;17892;52.080;9.006;2022-12-29T08:39:35;1.65;;;0.60;;
31262;SDS011;17892;52.080;9.006;2022-12-29T08:42:00;2.80;;;0.88;;
31262;SDS011;17892;52.080;9.006;2022-12-29T08:44:26;1.08;;;0.60;;
31262;SDS011;17892;52.080;9.006;2022-12-29T08:46:52;1.52;;;0.70;;
31262;SDS011;17892;52.080;9.006;2022-12-29T08:49:17;1.35;;;0.60;;
31262;SDS011;17892;52.080;9.006;2022-12-29T08:51:43;1.42;;;0.63;;
31262;SDS011;17892;52.080;9.006;2022-12-29T08:54:09;1.63;;;0.70;;
31262;SDS011;17892;52.080;9.006;2022-12-29T08:56:35;1.60;;;0.60;;
31262;SDS011;17892;52.080;9.006;2022-12-29T08:59:00;1.77;;;0.88;;
31262;SDS011;17892;52.080;9.006;2022-12-29T09:01:26;1.38;;;0.70;;
31262;SDS011;17892;52.080;9.006;2022-12-29T09:03:52;1.83;;;1.13;;
31262;SDS011;17892;52.080;9.006;2022-12-29T09:06:19;2.58;;;0.80;;
31262;SDS011;17892;52.080;9.006;2022-12-29T09:08:45;2.78;;;0.77;;
31262;SDS011;17892;52.080;9.006;2022-12-29T09:13:45;1.40;;;0.80;;
31262;SDS011;17892;52.080;9.006;2022-12-29T09:16:11;2.25;;;0.82;;
31262;SDS011;17892;52.080;9.006;2022-12-29T09:18:37;1.77;;;0.70;;
31262;SDS011;17892;52.080;9.006;2022-12-29T09:21:04;3.05;;;0.98;;
31262;SDS011;17892;52.080;9.006;2022-12-29T09:23:32;2.72;;;0.60;;
31262;SDS011;17892;52.080;9.006;2022-12-29T09:25:59;2.85;;;0.60;;
31262;SDS011;17892;52.080;9.006;2022-12-29T09:28:25;1.98;;;0.90;;
31262;SDS011;17892;52.080;9.006;2022-12-29T09:30:54;3.70;;;0.93;;
31262;SDS011;17892;52.080;9.006;2022-12-29T09:33:20;1.65;;;0.68;;
31262;SDS011;17892;52.080;9.006;2022-12-29T09:35:50;2.30;;;0.60;;
31262;SDS011;17892;52.080;9.006;2022-12-29T09:38:19;1.42;;;0.60;;
31262;SDS011;17892;52.080;9.006;2022-12-29T09:40:49;1.48;;;0.60;;
31262;SDS011;17892;52.080;9.006;2022-12-29T09:46:34;1.27;;;0.50;;
31262;SDS011;17892;52.080;9.006;2022-12-29T09:51:52;2.13;;;0.90;;
31262;SDS011;17892;52.080;9.006;2022-12-29T09:57:19;3.03;;;0.90;;
31262;SDS011;17892;52.080;9.006;2022-12-29T09:59:53;3.70;;;0.80;;
31262;SDS011;17892;52.080;9.006;2022-12-29T10:02:32;3.35;;;0.70;;
31262;SDS011;17892;52.080;9.006;2022-12-29T10:05:52;1.98;;;0.60;;
31262;SDS011;17892;52.080;9.006;2022-12-29T10:14:38;2.15;;;1.00;;
31262;SDS011;17892;52.080;9.006;2022-12-29T10:25:54;1.60;;;0.50;;
31262;SDS011;17892;52.080;9.006;2022-12-29T10:30:50;4.15;;;0.57;;
31262;SDS011;17892;52.080;9.006;2022-12-29T10:33:30;3.40;;;0.90;;
31262;SDS011;17892;52.080;9.006;2022-12-29T10:36:10;1.70;;;0.60;;
31262;SDS011;17892;52.080;9.006;2022-12-29T10:44:41;3.83;;;0.70;;
31262;SDS011;17892;52.080;9.006;2022-12-29T10:47:11;3.65;;;0.63;;
31262;SDS011;17892;52.080;9.006;2022-12-29T10:49:41;2.38;;;0.90;;
31262;SDS011;17892;52.080;9.006;2022-12-29T10:52:08;3.08;;;0.65;;
31262;SDS011;17892;52.080;9.006;2022-12-29T10:54:42;2.17;;;0.60;;
31262;SDS011;17892;52.080;9.006;2022-12-29T10:59:49;2.28;;;0.60;;
31262;SDS011;17892;52.080;9.006;2022-12-29T11:02:22;2.78;;;0.70;;
31262;SDS011;17892;52.080;9.006;2022-12-29T11:08:13;2.20;;;0.40;;
31262;SDS011;17892;52.080;9.006;2022-12-29T11:10:44;2.25;;;0.77;;
31262;SDS011;17892;52.080;9.006;2022-12-29T11:15:43;4.82;;;0.70;;
31262;SDS011;17892;52.080;9.006;2022-12-29T11:21:31;2.38;;;0.40;;
31262;SDS011;17892;52.080;9.006;2022-12-29T11:24:26;1.67;;;0.85;;
31262;SDS011;17892;52.080;9.006;2022-12-29T11:26:54;4.40;;;0.70;;
31262;SDS011;17892;52.080;9.006;2022-12-29T11:29:39;2.67;;;0.82;;
31262;SDS011;17892;52.080;9.006;2022-12-29T11:32:20;2.65;;;0.60;;
31262;SDS011;17892;52.080;9.006;2022-12-29T11:34:49;6.38;;;1.27;;
31262;SDS011;17892;52.080;9.006;2022-12-29T11:37:58;3.30;;;0.70;;
31262;SDS011;17892;52.080;9.006;2022-12-29T11:40:06;2.30;;;0.60;;
31262;SDS011;17892;52.080;9.006;2022-12-29T11:45:17;2.03;;;0.50;;
31262;SDS011;17892;52.080;9.006;2022-12-29T11:50:33;3.08;;;0.65;;
31262;SDS011;17892;52.080;9.006;2022-12-29T11:55:58;3.15;;;0.60;;
31262;SDS011;17892;52.080;9.006;2022-12-29T11:58:32;3.53;;;0.75;;
31262;SDS011;17892;52.080;9.006;2022-12-29T12:03:51;2.92;;;0.60;;
31262;SDS011;17892;52.080;9.006;2022-12-29T12:06:24;2.72;;;0.85;;
31262;SDS011;17892;52.080;9.006;2022-12-29T12:09:14;2.45;;;0.47;;
31262;SDS011;17892;52.080;9.006;2022-12-29T12:11:48;2.83;;;0.90;;
31262;SDS011;17892;52.080;9.006;2022-12-29T12:14:23;1.63;;;0.70;;
31262;SDS011;17892;52.080;9.006;2022-12-29T12:17:09;4.07;;;0.70;;
31262;SDS011;17892;52.080;9.006;2022-12-29T12:19:57;2.25;;;0.60;;
31262;SDS011;17892;52.080;9.006;2022-12-29T12:27:51;3.40;;;0.60;;
31262;SDS011;17892;52.080;9.006;2022-12-29T12:30:26;2.90;;;0.90;;
31262;SDS011;17892;52.080;9.006;2022-12-29T12:35:44;4.15;;;0.70;;
31262;SDS011;17892;52.080;9.006;2022-12-29T12:50:19;2.10;;;0.70;;
31262;SDS011;17892;52.080;9.006;2022-12-29T13:08:01;2.45;;;0.52;;
31262;SDS011;17892;52.080;9.006;2022-12-29T13:14:09;2.15;;;0.80;;
31262;SDS011;17892;52.080;9.006;2022-12-29T13:17:08;4.38;;;0.90;;
31262;SDS011;17892;52.080;9.006;2022-12-29T13:26:04;3.35;;;0.90;;
31262;SDS011;17892;52.080;9.006;2022-12-29T13:31:31;2.85;;;0.63;;
31262;SDS011;17892;52.080;9.006;2022-12-29T13:37:59;2.53;;;0.65;;
31262;SDS011;17892;52.080;9.006;2022-12-29T13:40:43;2.63;;;0.80;;
31262;SDS011;17892;52.080;9.006;2022-12-29T13:43:13;2.83;;;0.88;;
31262;SDS011;17892;52.080;9.006;2022-12-29T13:45:42;3.55;;;0.88;;
31262;SDS011;17892;52.080;9.006;2022-12-29T13:48:14;4.05;;;1.20;;
31262;SDS011;17892;52.080;9.006;2022-12-29T13:50:48;3.83;;;0.75;;
31262;SDS011;17892;52.080;9.006;2022-12-29T13:53:29;2.58;;;0.85;;
31262;SDS011;17892;52.080;9.006;2022-12-29T13:56:10;2.60;;;0.70;;
31262;SDS011;17892;52.080;9.006;2022-12-29T13:59:12;2.63;;;0.80;;
31262;SDS011;17892;52.080;9.006;2022-12-29T14:04:21;4.68;;;0.90;;
31262;SDS011;17892;52.080;9.006;2022-12-29T14:07:06;8.35;;;1.13;;
31262;SDS011;17892;52.080;9.006;2022-12-29T14:12:30;4.03;;;0.80;;
31262;SDS011;17892;52.080;9.006;2022-12-29T14:17:35;2.50;;;0.90;;
31262;SDS011;17892;52.080;9.006;2022-12-29T14:20:03;4.25;;;1.00;;
31262;SDS011;17892;52.080;9.006;2022-12-29T14:28:31;2.08;;;0.70;;
31262;SDS011;17892;52.080;9.006;2022-12-29T14:31:53;2.88;;;0.93;;
31262;SDS011;17892;52.080;9.006;2022-12-29T14:37:21;6.03;;;1.15;;
31262;SDS011;17892;52.080;9.006;2022-12-29T14:39:32;4.32;;;1.42;;
31262;SDS011;17892;52.080;9.006;2022-12-29T14:42:11;2.22;;;0.88;;
31262;SDS011;17892;52.080;9.006;2022-12-29T14:45:28;2.75;;;0.93;;
31262;SDS011;17892;52.080;9.006;2022-12-29T14:47:39;3.13;;;1.55;;
31262;SDS011;17892;52.080;9.006;2022-12-29T14:50:13;5.60;;;1.20;;
31262;SDS011;17892;52.080;9.006;2022-12-29T14:55:38;2.97;;;0.88;;
31262;SDS011;17892;52.080;9.006;2022-12-29T14:58:05;4.10;;;1.00;;
31262;SDS011;17892;52.080;9.006;2022-12-29T15:00:49;2.95;;;1.02;;
31262;SDS011;17892;52.080;9.006;2022-12-29T15:06:12;3.05;;;0.82;;
31262;SDS011;17892;52.080;9.006;2022-12-29T15:08:45;5.38;;;1.10;;
31262;SDS011;17892;52.080;9.006;2022-12-29T15:11:21;5.13;;;1.20;;
31262;SDS011;17892;52.080;9.006;2022-12-29T15:13:57;2.88;;;0.77;;
31262;SDS011;17892;52.080;9.006;2022-12-29T15:16:30;8.55;;;1.58;;
31262;SDS011;17892;52.080;9.006;2022-12-29T15:19:00;6.18;;;1.73;;
31262;SDS011;17892;52.080;9.006;2022-12-29T15:21:27;3.38;;;1.10;;
31262;SDS011;17892;52.080;9.006;2022-12-29T15:23:58;3.20;;;1.20;;
31262;SDS011;17892;52.080;9.006;2022-12-29T15:26:41;2.80;;;1.00;;
31262;SDS011;17892;52.080;9.006;2022-12-29T15:34:47;4.75;;;0.93;;
31262;SDS011;17892;52.080;9.006;2022-12-29T15:37:17;4.32;;;0.90;;
31262;SDS011;17892;52.080;9.006;2022-12-29T15:39:46;7.50;;;1.25;;
31262;SDS011;17892;52.080;9.006;2022-12-29T15:44:50;3.97;;;0.90;;
31262;SDS011;17892;52.080;9.006;2022-12-29T15:47:18;3.10;;;1.00;;
31262;SDS011;17892;52.080;9.006;2022-12-29T15:49:53;8.02;;;1.00;;
31262;SDS011;17892;52.080;9.006;2022-12-29T15:52:54;5.10;;;0.80;;
31262;SDS011;17892;52.080;9.006;2022-12-29T15:55:26;3.28;;;1.08;;
31262;SDS011;17892;52.080;9.006;2022-12-29T15:58:02;2.65;;;0.90;;
31262;SDS011;17892;52.080;9.006;2022-12-29T16:03:02;4.53;;;0.88;;
31262;SDS011;17892;52.080;9.006;2022-12-29T16:05:33;3.13;;;1.08;;
31262;SDS011;17892;52.080;9.006;2022-12-29T16:08:02;5.95;;;0.85;;
31262;SDS011;17892;52.080;9.006;2022-12-29T16:10:39;5.88;;;0.80;;
31262;SDS011;17892;52.080;9.006;2022-12-29T16:13:13;4.28;;;0.90;;
31262;SDS011;17892;52.080;9.006;2022-12-29T16:15:59;3.63;;;0.77;;
31262;SDS011;17892;52.080;9.006;2022-12-29T16:18:47;1.77;;;0.50;;
31262;SDS011;17892;52.080;9.006;2022-12-29T16:21:20;2.05;;;0.82;;
31262;SDS011;17892;52.080;9.006;2022-12-29T16:23:58;2.08;;;0.77;;
31262;SDS011;17892;52.080;9.006;2022-12-29T16:26:28;2.40;;;0.98;;
31262;SDS011;17892;52.080;9.006;2022-12-29T16:28:55;4.60;;;1.00;;
31262;SDS011;17892;52.080;9.006;2022-12-29T16:31:24;4.65;;;1.10;;
31262;SDS011;17892;52.080;9.006;2022-12-29T16:34:09;4.07;;;0.98;;
31262;SDS011;17892;52.080;9.006;2022-12-29T16:36:57;5.05;;;0.95;;
31262;SDS011;17892;52.080;9.006;2022-12-29T16:39:46;5.47;;;0.90;;
31262;SDS011;17892;52.080;9.006;2022-12-29T16:45:22;4.50;;;0.90;;
31262;SDS011;17892;52.080;9.006;2022-12-29T16:48:20;6.45;;;1.80;;
31262;SDS011;17892;52.080;9.006;2022-12-29T16:50:50;2.97;;;0.82;;
31262;SDS011;17892;52.080;9.006;2022-12-29T16:55:54;3.50;;;0.70;;
31262;SDS011;17892;52.080;9.006;2022-12-29T16:58:24;3.33;;;0.70;;
31262;SDS011;17892;52.080;9.006;2022-12-29T17:00:56;2.20;;;0.70;;
31262;SDS011;17892;52.080;9.006;2022-12-29T17:03:27;1.77;;;0.38;;
31262;SDS011;17892;52.080;9.006;2022-12-29T17:06:03;5.07;;;1.65;;
31262;SDS011;17892;52.080;9.006;2022-12-29T17:08:38;2.00;;;0.63;;
31262;SDS011;17892;52.080;9.006;2022-12-29T17:11:08;2.40;;;0.50;;
31262;SDS011;17892;52.080;9.006;2022-12-29T17:14:19;4.68;;;1.02;;
31262;SDS011;17892;52.080;9.006;2022-12-29T17:17:40;4.82;;;0.65;;
31262;SDS011;17892;52.080;9.006;2022-12-29T17:20:16;3.92;;;0.50;;
31262;SDS011;17892;52.080;9.006;2022-12-29T17:22:43;3.35;;;0.77;;
31262;SDS011;17892;52.080;9.006;2022-12-29T17:25:13;3.25;;;0.80;;
31262;SDS011;17892;52.080;9.006;2022-12-29T17:27:58;3.40;;;0.65;;
31262;SDS011;17892;52.080;9.006;2022-12-29T17:30:28;2.63;;;1.10;;
31262;SDS011;17892;52.080;9.006;2022-12-29T17:33:02;2.40;;;0.60;;
31262;SDS011;17892;52.080;9.006;2022-12-29T17:35:32;1.95;;;0.52;;
31262;SDS011;17892;52.080;9.006;2022-12-29T17:37:58;3.78;;;0.77;;
31262;SDS011;17892;52.080;9.006;2022-12-29T17:40:28;2.05;;;0.60;;
31262;SDS011;17892;52.080;9.006;2022-12-29T17:42:57;2.17;;;0.70;;
31262;SDS011;17892;52.080;9.006;2022-12-29T17:45:25;3.20;;;0.68;;
31262;SDS011;17892;52.080;9.006;2022-12-29T17:47:56;3.08;;;0.60;;
31262;SDS011;17892;52.080;9.006;2022-12-29T17:50:26;1.55;;;0.52;;
31262;SDS011;17892;52.080;9.006;2022-12-29T17:52:55;2.83;;;0.60;;
31262;SDS011;17892;52.080;9.006;2022-12-29T17:55:27;3.78;;;0.98;;
31262;SDS011;17892;52.080;9.006;2022-12-29T17:57:53;3.08;;;0.60;;
31262;SDS011;17892;52.080;9.006;2022-12-29T18:00:20;2.22;;;0.70;;
31262;SDS011;17892;52.080;9.006;2022-12-29T18:02:51;2.45;;;0.68;;
31262;SDS011;17892;52.080;9.006;2022-12-29T18:07:55;2.80;;;0.65;;
31262;SDS011;17892;52.080;9.006;2022-12-29T18:10:24;3.28;;;0.73;;